Time;durP1;ratioP1;P1;durP2;ratioP2;P2;SDS_P1;SDS_P2;PMS_P1;PMS_P2;Temp;Humidity;BMP_temperature;BMP_pressure;BME280_temperature;BME280_humidity;BME280_pressure;Samples;Min_cycle;Max_cycle;Signal;HPM_P1;HPM_P2
2021/03/04 00:01:40;;;;;;;24.65;15.95;;;9.20;49.80;;;;;;5049641;28;20234;-79
2021/03/04 00:04:07;;;;;;;23.05;16.08;;;9.20;49.70;;;;;;5052834;28;20234;-79
2021/03/04 00:06:33;;;;;;;22.63;15.40;;;9.20;49.50;;;;;;5045594;28;20251;-80
2021/03/04 00:08:59;;;;;;;19.90;15.00;;;9.20;49.50;;;;;;5047188;28;20230;-78
2021/03/04 00:11:26;;;;;;;23.95;16.77;;;9.20;49.50;;;;;;5048714;28;20628;-78
2021/03/04 00:13:53;;;;;;;21.08;14.95;;;9.20;49.50;;;;;;5053114;28;20227;-80
2021/03/04 00:16:20;;;;;;;24.30;14.82;;;9.20;49.50;;;;;;5043712;28;20294;-79
2021/03/04 00:18:46;;;;;;;19.52;15.27;;;9.20;49.60;;;;;;5042301;28;20213;-79
2021/03/04 00:21:13;;;;;;;23.08;16.40;;;9.30;50.30;;;;;;5041670;28;20223;-78
2021/03/04 00:23:40;;;;;;;23.02;14.93;;;9.20;49.50;;;;;;5038682;28;20227;-79
2021/03/04 00:26:06;;;;;;;22.08;16.20;;;9.30;49.60;;;;;;5040675;28;20207;-79
2021/03/04 00:28:33;;;;;;;22.30;15.93;;;9.30;49.60;;;;;;5041966;28;20203;-79
2021/03/04 00:31:00;;;;;;;18.75;14.30;;;9.30;49.60;;;;;;5039105;28;20203;-79
2021/03/04 00:33:26;;;;;;;20.80;14.75;;;9.30;49.60;;;;;;5038844;28;20265;-79
2021/03/04 00:35:53;;;;;;;21.90;15.13;;;9.20;49.50;;;;;;5039053;28;20277;-78
2021/03/04 00:38:19;;;;;;;25.63;14.15;;;9.20;49.50;;;;;;5048818;28;20203;-79
2021/03/04 00:40:46;;;;;;;22.83;15.50;;;9.20;49.50;;;;;;5041227;28;20254;-78
2021/03/04 00:43:13;;;;;;;23.10;15.68;;;9.30;49.60;;;;;;5041210;28;20930;-78
2021/03/04 00:45:40;;;;;;;27.90;16.85;;;9.20;49.50;;;;;;5041617;28;20628;-79
2021/03/04 00:48:09;;;;;;;22.05;16.02;;;9.20;49.50;;;;;;5039272;28;20222;-78
2021/03/04 00:50:36;;;;;;;22.90;15.45;;;9.10;49.50;;;;;;5037284;28;20242;-78
2021/03/04 00:53:03;;;;;;;24.00;15.20;;;9.10;49.50;;;;;;5037237;28;20255;-81
2021/03/04 00:55:30;;;;;;;25.70;15.40;;;9.00;49.40;;;;;;5038203;28;20199;-79
2021/03/04 00:57:56;;;;;;;23.45;16.13;;;9.00;49.40;;;;;;5038634;28;20683;-78
2021/03/04 01:00:23;;;;;;;22.70;16.58;;;9.00;49.40;;;;;;5038481;28;20219;-78
2021/03/04 01:02:49;;;;;;;26.02;16.05;;;9.10;49.50;;;;;;5037905;28;20318;-81
2021/03/04 01:05:17;;;;;;;22.85;16.55;;;9.10;49.50;;;;;;5038526;28;20234;-79
2021/03/04 01:07:43;;;;;;;21.90;16.65;;;9.10;49.50;;;;;;5038414;28;20207;-78
2021/03/04 01:10:13;;;;;;;25.20;16.02;;;9.10;49.50;;;;;;5037480;28;20234;-79
2021/03/04 01:12:39;;;;;;;26.70;16.23;;;9.10;49.50;;;;;;5037229;28;20223;-80
2021/03/04 01:15:09;;;;;;;27.98;16.20;;;9.10;49.50;;;;;;5037949;28;20555;-79
2021/03/04 01:17:36;;;;;;;22.80;16.50;;;9.20;49.50;;;;;;5041076;28;20203;-79
2021/03/04 01:20:06;;;;;;;22.13;16.70;;;9.20;49.50;;;;;;5039284;28;20239;-79
2021/03/04 01:22:34;;;;;;;25.58;17.05;;;9.20;49.50;;;;;;5038006;28;20274;-81
2021/03/04 01:25:00;;;;;;;24.70;16.45;;;9.20;49.50;;;;;;5038576;28;20626;-79
2021/03/04 01:27:27;;;;;;;23.45;16.90;;;9.10;49.50;;;;;;5039866;28;20572;-80
2021/03/04 01:29:53;;;;;;;29.55;17.65;;;9.10;49.50;;;;;;5037836;28;20235;-80
2021/03/04 01:32:20;;;;;;;22.80;16.45;;;9.10;49.50;;;;;;5037852;28;20235;-79
2021/03/04 01:34:46;;;;;;;22.73;15.98;;;9.10;49.50;;;;;;5045245;28;20574;-78
2021/03/04 01:37:13;;;;;;;20.85;16.85;;;9.10;49.40;;;;;;5037007;28;20242;-78
2021/03/04 01:39:40;;;;;;;27.40;17.02;;;9.10;49.50;;;;;;5053838;28;20203;-78
2021/03/04 01:42:07;;;;;;;24.67;17.52;;;9.10;50.10;;;;;;5055183;28;20234;-79
2021/03/04 01:44:34;;;;;;;22.38;15.65;;;9.10;49.40;;;;;;5054923;28;20230;-78
2021/03/04 01:47:01;;;;;;;25.75;17.15;;;9.10;49.10;;;;;;5060000;28;20187;-79
2021/03/04 01:49:27;;;;;;;22.60;15.70;;;9.10;48.80;;;;;;5059220;28;20190;-78
2021/03/04 01:51:54;;;;;;;28.02;17.15;;;9.10;48.80;;;;;;5059229;28;20210;-78
2021/03/04 01:54:21;;;;;;;21.15;16.77;;;9.10;48.50;;;;;;5059189;28;20206;-79
2021/03/04 01:56:48;;;;;;;22.35;14.90;;;9.10;48.20;;;;;;5059066;28;20175;-78
2021/03/04 01:59:16;;;;;;;22.10;16.50;;;9.10;47.90;;;;;;5058928;28;20210;-78
2021/03/04 02:01:42;;;;;;;36.58;16.27;;;9.10;47.60;;;;;;5058092;28;20244;-79
2021/03/04 02:04:09;;;;;;;24.38;16.63;;;9.10;47.60;;;;;;5057052;28;20195;-79
2021/03/04 02:06:42;;;;;;;25.42;16.17;;;9.10;47.20;;;;;;5051964;28;20207;-79
2021/03/04 02:09:11;;;;;;;21.10;15.55;;;9.10;47.20;;;;;;5048254;28;20214;-78
2021/03/04 02:11:43;;;;;;;24.85;16.80;;;9.10;47.10;;;;;;5043970;28;20213;-79
2021/03/04 02:14:15;;;;;;;22.65;15.10;;;9.10;47.00;;;;;;5053520;28;20198;-78
2021/03/04 02:16:45;;;;;;;22.85;16.08;;;9.00;47.00;;;;;;5056561;28;20195;-80
2021/03/04 02:19:31;;;;;;;21.10;14.80;;;9.00;47.00;;;;;;5057025;28;20211;-79
2021/03/04 02:22:09;;;;;;;20.30;14.07;;;9.00;46.80;;;;;;5056419;28;20222;-77
2021/03/04 02:24:47;;;;;;;26.20;16.13;;;9.00;46.90;;;;;;5056244;28;20195;-79
2021/03/04 02:27:15;;;;;;;19.95;14.27;;;8.90;46.90;;;;;;5057320;28;20191;-79
2021/03/04 02:29:45;;;;;;;23.13;15.60;;;8.80;46.80;;;;;;5058360;28;20191;-77
2021/03/04 02:32:12;;;;;;;23.33;14.95;;;8.80;47.20;;;;;;5056670;28;20219;-77
2021/03/04 02:34:45;;;;;;;23.35;15.90;;;8.70;47.50;;;;;;5053316;28;20227;-78
2021/03/04 02:37:14;;;;;;;21.50;14.65;;;8.70;47.60;;;;;;5039817;28;20225;-79
2021/03/04 02:39:43;;;;;;;23.90;15.18;;;8.70;47.40;;;;;;5037910;28;20211;-79
2021/03/04 02:42:10;;;;;;;21.00;14.45;;;8.60;47.70;;;;;;5043007;28;20234;-78
2021/03/04 02:44:40;;;;;;;22.42;14.02;;;8.70;47.50;;;;;;5043810;28;20230;-78
2021/03/04 02:47:07;;;;;;;24.73;15.32;;;8.60;47.50;;;;;;5044281;28;20218;-80
2021/03/04 02:49:34;;;;;;;22.48;15.55;;;8.60;47.40;;;;;;5041324;28;20239;-78
2021/03/04 02:52:01;;;;;;;23.50;15.10;;;8.60;47.20;;;;;;5036364;28;20233;-79
2021/03/04 02:54:29;;;;;;;23.30;15.35;;;8.60;47.10;;;;;;5037800;28;20253;-79
2021/03/04 02:56:57;;;;;;;21.55;14.88;;;8.60;47.30;;;;;;5038942;28;20203;-79
2021/03/04 02:59:26;;;;;;;19.35;14.88;;;8.50;47.30;;;;;;5040754;28;20237;-78
2021/03/04 03:01:54;;;;;;;24.25;15.20;;;8.60;47.90;;;;;;5044506;28;20301;-78
2021/03/04 03:04:21;;;;;;;21.60;14.75;;;8.60;46.60;;;;;;5043030;28;20284;-78
2021/03/04 03:06:48;;;;;;;21.00;14.02;;;8.60;46.60;;;;;;5044231;28;20249;-79
2021/03/04 03:09:14;;;;;;;22.33;13.38;;;8.60;46.50;;;;;;5048045;28;20207;-78
2021/03/04 03:11:41;;;;;;;19.85;15.02;;;8.60;46.40;;;;;;5049187;28;20227;-79
2021/03/04 03:14:09;;;;;;;21.42;14.40;;;8.60;46.30;;;;;;5048197;28;20280;-79
2021/03/04 03:16:35;;;;;;;20.00;14.73;;;8.60;46.10;;;;;;5050825;28;20207;-78
2021/03/04 03:19:03;;;;;;;26.63;15.70;;;8.60;46.00;;;;;;5053430;28;20211;-80
2021/03/04 03:21:30;;;;;;;18.65;13.43;;;8.60;45.90;;;;;;5049645;28;20229;-79
2021/03/04 03:23:56;;;;;;;18.88;13.73;;;8.60;45.70;;;;;;5058902;28;20200;-79
2021/03/04 03:26:23;;;;;;;18.05;12.85;;;8.60;45.70;;;;;;5057704;28;20215;-78
2021/03/04 03:28:50;;;;;;;22.38;13.82;;;8.50;45.60;;;;;;5057804;28;20238;-78
2021/03/04 03:31:19;;;;;;;19.10;13.40;;;8.50;45.40;;;;;;5056467;28;20604;-79
2021/03/04 03:33:46;;;;;;;17.85;12.75;;;8.50;45.30;;;;;;5050157;28;20207;-79
2021/03/04 03:36:29;;;;;;;18.15;13.15;;;8.40;45.50;;;;;;5152621;27;20618;-79
2021/03/04 03:38:57;;;;;;;15.52;12.40;;;8.40;45.60;;;;;;5118797;28;20204;-80
2021/03/04 03:41:25;;;;;;;17.80;13.18;;;8.30;45.60;;;;;;5118830;28;20521;-79
2021/03/04 03:43:53;;;;;;;17.98;12.80;;;8.20;45.90;;;;;;5114494;28;20197;-80
2021/03/04 03:46:20;;;;;;;22.08;13.13;;;8.10;46.00;;;;;;5116195;28;20274;-79
2021/03/04 03:48:47;;;;;;;20.75;13.40;;;8.10;46.40;;;;;;5117115;28;20213;-81
2021/03/04 03:51:15;;;;;;;16.95;12.15;;;8.00;46.40;;;;;;5116667;28;20204;-80
2021/03/04 03:53:43;;;;;;;17.70;12.52;;;8.00;46.40;;;;;;5113653;27;20291;-79
2021/03/04 03:56:11;;;;;;;21.25;13.07;;;7.90;46.50;;;;;;5114602;28;20284;-79
2021/03/04 03:58:39;;;;;;;19.30;14.02;;;7.90;46.60;;;;;;5112401;28;20208;-81
2021/03/04 04:01:06;;;;;;;14.50;11.80;;;7.90;46.20;;;;;;5112558;28;20196;-79
2021/03/04 04:03:34;;;;;;;16.45;12.02;;;7.90;46.30;;;;;;5113099;28;20323;-80
2021/03/04 04:06:03;;;;;;;16.90;11.30;;;8.00;46.30;;;;;;5114867;27;20205;-78
2021/03/04 04:08:30;;;;;;;20.30;12.30;;;7.90;46.00;;;;;;5122620;28;20208;-80
2021/03/04 04:10:57;;;;;;;17.42;11.30;;;7.90;46.20;;;;;;5125758;27;20212;-81
2021/03/04 04:13:24;;;;;;;18.90;12.10;;;7.80;46.30;;;;;;5132414;28;20216;-80
2021/03/04 04:15:51;;;;;;;23.45;12.38;;;7.90;46.10;;;;;;5133746;27;20209;-80
2021/03/04 04:18:19;;;;;;;15.07;10.60;;;7.80;46.20;;;;;;5133275;28;20209;-81
2021/03/04 04:20:46;;;;;;;16.50;11.02;;;7.80;46.10;;;;;;5131232;28;20212;-78
2021/03/04 04:23:13;;;;;;;17.95;11.77;;;7.80;46.20;;;;;;5132724;28;20234;-80
2021/03/04 04:25:48;;;;;;;18.80;12.50;;;7.90;45.70;;;;;;5133685;27;20303;-81
2021/03/04 04:28:15;;;;;;;15.88;10.13;;;7.90;45.50;;;;;;5133317;28;20173;-81
2021/03/04 04:30:42;;;;;;;17.17;11.90;;;7.90;45.40;;;;;;5133849;27;20242;-80
2021/03/04 04:33:09;;;;;;;17.40;10.45;;;8.00;45.10;;;;;;5133093;28;20231;-79
2021/03/04 04:35:36;;;;;;;18.50;12.05;;;8.00;44.90;;;;;;5125525;27;20224;-80
2021/03/04 04:38:02;;;;;;;16.00;10.48;;;8.00;44.60;;;;;;5115523;28;20299;-79
2021/03/04 04:40:29;;;;;;;14.90;10.90;;;8.00;44.50;;;;;;5115435;27;20217;-80
2021/03/04 04:42:55;;;;;;;17.55;10.48;;;8.00;44.70;;;;;;5117896;28;20252;-80
2021/03/04 04:45:23;;;;;;;17.25;11.45;;;8.00;44.90;;;;;;5122465;27;20230;-80
2021/03/04 04:47:49;;;;;;;17.13;11.95;;;8.00;45.00;;;;;;5116907;27;20226;-81
2021/03/04 04:50:16;;;;;;;18.27;11.05;;;7.90;45.20;;;;;;5119006;28;20200;-83
2021/03/04 04:52:42;;;;;;;13.98;10.85;;;7.90;45.10;;;;;;5120031;28;20243;-80
2021/03/04 04:55:10;;;;;;;16.27;10.80;;;7.90;44.90;;;;;;5119982;28;20244;-80
2021/03/04 04:57:36;;;;;;;22.25;12.68;;;7.90;44.90;;;;;;5120572;28;20302;-82
2021/03/04 05:00:05;;;;;;;22.83;11.20;;;7.90;45.70;;;;;;5120924;28;20189;-80
2021/03/04 05:02:33;;;;;;;18.05;10.93;;;7.90;45.00;;;;;;5119709;28;20209;-81
2021/03/04 05:04:59;;;;;;;15.80;11.35;;;7.90;44.80;;;;;;5113168;28;20216;-81
2021/03/04 05:07:26;;;;;;;15.70;11.18;;;8.00;44.60;;;;;;5110018;28;20542;-81
2021/03/04 05:09:52;;;;;;;16.60;10.70;;;8.00;44.80;;;;;;5099813;28;20575;-79
2021/03/04 05:12:19;;;;;;;20.27;10.90;;;8.00;44.40;;;;;;5098399;28;20217;-80
2021/03/04 05:14:47;;;;;;;13.27;10.00;;;8.00;44.40;;;;;;5098590;28;20583;-80
2021/03/04 05:17:13;;;;;;;20.33;10.55;;;8.00;44.40;;;;;;5099990;28;20205;-81
2021/03/04 05:19:41;;;;;;;13.60;10.50;;;8.00;44.40;;;;;;5098683;28;20201;-81
2021/03/04 05:22:07;;;;;;;16.42;10.25;;;8.00;44.30;;;;;;5099847;28;20229;-80
2021/03/04 05:24:34;;;;;;;16.10;11.02;;;8.00;44.40;;;;;;5100141;28;20205;-80
2021/03/04 05:27:00;;;;;;;15.88;10.82;;;8.10;44.40;;;;;;5098485;28;20668;-80
2021/03/04 05:29:27;;;;;;;15.10;10.75;;;8.10;44.30;;;;;;5098581;28;20197;-79
2021/03/04 05:31:53;;;;;;;15.25;9.73;;;8.10;44.20;;;;;;5100723;28;20356;-81
2021/03/04 05:34:20;;;;;;;13.93;10.25;;;8.10;44.30;;;;;;5099304;28;20294;-81
2021/03/04 05:36:47;;;;;;;18.33;10.70;;;8.10;44.50;;;;;;5099175;28;20177;-80
2021/03/04 05:39:13;;;;;;;15.15;10.82;;;8.10;44.20;;;;;;5099773;28;20290;-79
2021/03/04 05:41:41;;;;;;;14.15;10.10;;;8.10;44.40;;;;;;5099544;28;20228;-79
2021/03/04 05:44:08;;;;;;;17.73;11.57;;;8.10;44.30;;;;;;5098720;28;20225;-79
2021/03/04 05:46:35;;;;;;;16.70;11.70;;;8.10;44.40;;;;;;5098799;28;20197;-80
2021/03/04 05:49:03;;;;;;;14.98;10.82;;;8.20;44.60;;;;;;5098774;28;20259;-79
2021/03/04 05:51:33;;;;;;;16.58;10.32;;;8.20;44.60;;;;;;5096862;28;20209;-79
2021/03/04 05:54:04;;;;;;;17.85;12.15;;;8.20;44.50;;;;;;5097837;28;20272;-80
2021/03/04 05:56:31;;;;;;;17.00;10.73;;;8.10;44.70;;;;;;5098888;28;20640;-79
2021/03/04 05:59:00;;;;;;;16.30;11.70;;;8.10;45.10;;;;;;5098105;28;20253;-80
2021/03/04 06:01:28;;;;;;;16.48;10.82;;;8.10;45.90;;;;;;5099203;28;20282;-78
2021/03/04 06:03:55;;;;;;;20.10;11.45;;;8.10;45.00;;;;;;5099395;28;20281;-80
2021/03/04 06:06:21;;;;;;;19.08;11.57;;;8.10;44.80;;;;;;5100545;28;20202;-80
2021/03/04 06:08:48;;;;;;;21.08;12.07;;;8.10;44.90;;;;;;5101094;28;20297;-80
2021/03/04 06:11:15;;;;;;;19.27;13.20;;;8.20;45.00;;;;;;5101717;28;20255;-80
2021/03/04 06:13:42;;;;;;;17.60;11.88;;;8.20;44.80;;;;;;5106964;28;20221;-79
2021/03/04 06:16:08;;;;;;;20.75;13.25;;;8.20;44.70;;;;;;5104737;28;20232;-79
2021/03/04 06:18:40;;;;;;;19.98;12.63;;;8.20;45.00;;;;;;5116394;28;20205;-82
2021/03/04 06:21:21;;;;;;;20.95;12.50;;;8.20;44.90;;;;;;5114326;28;20229;-79
2021/03/04 06:23:48;;;;;;;21.02;13.55;;;8.20;45.10;;;;;;5099286;28;20205;-81
2021/03/04 06:26:35;;;;;;;21.52;12.50;;;8.30;45.20;;;;;;5100917;28;20232;-79
2021/03/04 06:29:12;;;;;;;21.60;12.75;;;8.30;45.10;;;;;;5100116;28;20192;-81
2021/03/04 06:31:38;;;;;;;19.95;12.98;;;8.30;45.20;;;;;;5097454;28;20189;-80
2021/03/04 06:34:16;;;;;;;18.30;12.30;;;8.20;45.20;;;;;;5102067;28;20240;-81
2021/03/04 06:36:52;;;;;;;20.75;13.65;;;8.20;45.50;;;;;;5101069;28;20200;-80
2021/03/04 06:39:19;;;;;;;26.15;13.45;;;8.10;45.60;;;;;;5104066;28;20224;-82
2021/03/04 06:41:46;;;;;;;20.63;13.05;;;8.20;45.70;;;;;;5107583;28;20225;-81
2021/03/04 06:44:13;;;;;;;18.13;12.60;;;8.30;45.50;;;;;;5106045;28;20272;-81
2021/03/04 06:46:46;;;;;;;20.40;12.35;;;8.40;45.20;;;;;;5107654;28;20205;-77
2021/03/04 06:49:12;;;;;;;17.70;12.00;;;8.50;45.00;;;;;;5107894;28;20207;-79
2021/03/04 06:51:43;;;;;;;17.83;12.18;;;8.50;45.00;;;;;;5105236;28;20309;-79
2021/03/04 06:54:21;;;;;;;17.42;12.00;;;8.50;45.00;;;;;;5109259;28;20247;-82
2021/03/04 06:56:48;;;;;;;24.85;13.80;;;8.40;45.10;;;;;;5110749;28;20227;-84
2021/03/04 06:59:29;;;;;;;19.08;13.07;;;8.40;45.20;;;;;;5116580;28;20216;-78
2021/03/04 07:01:55;;;;;;;20.75;14.05;;;8.40;45.20;;;;;;5115606;28;20272;-80
2021/03/04 07:04:22;;;;;;;18.63;12.38;;;8.40;45.20;;;;;;5113217;28;20201;-79
2021/03/04 07:06:49;;;;;;;20.20;13.05;;;8.40;45.30;;;;;;5111559;28;20657;-81
2021/03/04 07:09:21;;;;;;;20.55;13.80;;;8.30;45.60;;;;;;5102979;28;20661;-79
2021/03/04 07:11:49;;;;;;;26.77;14.57;;;8.30;45.90;;;;;;5102806;28;20229;-79
2021/03/04 07:14:16;;;;;;;21.40;14.18;;;8.40;45.50;;;;;;5103857;28;20284;-81
2021/03/04 07:16:44;;;;;;;21.23;13.80;;;8.40;45.40;;;;;;5108727;28;20216;-78
2021/03/04 07:19:11;;;;;;;17.48;12.10;;;8.50;45.30;;;;;;5107191;28;20228;-80
2021/03/04 07:21:39;;;;;;;22.48;13.02;;;8.50;45.30;;;;;;5101317;28;20232;-81
2021/03/04 07:24:07;;;;;;;26.60;13.82;;;8.50;45.00;;;;;;5101345;28;20212;-81
2021/03/04 07:26:36;;;;;;;21.35;12.75;;;8.60;44.60;;;;;;5107804;28;20209;-81
2021/03/04 07:29:04;;;;;;;20.85;12.70;;;8.70;44.30;;;;;;5114978;28;20204;-80
2021/03/04 07:31:31;;;;;;;18.48;12.10;;;8.70;44.30;;;;;;5092712;28;20201;-80
2021/03/04 07:33:59;;;;;;;30.17;13.73;;;8.80;44.00;;;;;;5102471;28;20201;-81
2021/03/04 07:36:26;;;;;;;22.15;12.30;;;8.80;43.60;;;;;;5101301;28;20256;-80
2021/03/04 07:38:57;;;;;;;22.42;12.60;;;8.90;43.30;;;;;;5095172;28;20247;-79
2021/03/04 07:41:35;;;;;;;20.25;10.95;;;9.00;42.50;;;;;;5095390;28;20296;-78
2021/03/04 07:44:03;;;;;;;23.10;12.10;;;9.30;42.10;;;;;;5095365;28;20292;-79
2021/03/04 07:46:34;;;;;;;15.93;11.30;;;9.50;41.20;;;;;;5094854;28;20220;-80
2021/03/04 07:49:02;;;;;;;12.55;9.68;;;9.70;40.20;;;;;;5097457;28;20626;-80
2021/03/04 07:51:29;;;;;;;15.98;10.07;;;9.80;40.30;;;;;;5084864;28;20250;-81
2021/03/04 07:53:56;;;;;;;14.43;9.45;;;9.70;40.20;;;;;;5086624;28;20299;-80
2021/03/04 07:56:31;;;;;;;16.42;9.95;;;9.70;40.20;;;;;;5108217;28;20241;-78
2021/03/04 07:59:10;;;;;;;16.20;10.90;;;9.60;40.20;;;;;;5115796;28;20205;-78
2021/03/04 08:01:37;;;;;;;14.80;10.57;;;9.50;40.10;;;;;;5116076;28;20201;-80
2021/03/04 08:04:03;;;;;;;21.02;10.32;;;9.40;40.00;;;;;;5116223;28;20215;-80
2021/03/04 08:06:30;;;;;;;16.23;9.73;;;9.50;39.60;;;;;;5115539;28;20221;-80
2021/03/04 08:08:56;;;;;;;14.13;10.13;;;9.50;40.00;;;;;;5111031;28;20681;-81
2021/03/04 08:11:28;;;;;;;15.45;9.65;;;9.60;38.90;;;;;;5098509;28;20447;-81
2021/03/04 08:13:55;;;;;;;14.32;10.15;;;9.70;38.30;;;;;;5097376;28;20209;-79
2021/03/04 08:16:23;;;;;;;14.27;10.18;;;9.80;38.10;;;;;;5094956;28;20229;-80
2021/03/04 08:18:53;;;;;;;18.52;10.68;;;9.90;37.90;;;;;;5096035;28;20723;-81
2021/03/04 08:21:20;;;;;;;15.63;10.00;;;9.90;37.70;;;;;;5095939;28;20208;-80
2021/03/04 08:23:47;;;;;;;16.50;9.52;;;9.90;37.80;;;;;;5099068;28;20212;-79
2021/03/04 08:26:21;;;;;;;18.05;11.25;;;9.90;37.50;;;;;;5099233;28;20560;-79
2021/03/04 08:28:48;;;;;;;15.57;9.38;;;9.90;37.70;;;;;;5098487;28;20776;-81
2021/03/04 08:31:15;;;;;;;19.35;9.75;;;10.00;36.50;;;;;;5099065;28;20239;-81
2021/03/04 08:33:42;;;;;;;15.27;10.38;;;10.10;36.50;;;;;;5099049;28;20245;-80
2021/03/04 08:36:09;;;;;;;21.00;11.10;;;10.10;36.20;;;;;;5099605;28;20225;-78
2021/03/04 08:38:40;;;;;;;18.25;10.55;;;10.10;36.10;;;;;;5098756;28;20742;-79
2021/03/04 08:41:07;;;;;;;14.50;10.18;;;10.30;36.30;;;;;;5099139;28;20213;-80
2021/03/04 08:43:33;;;;;;;13.18;9.77;;;10.40;35.90;;;;;;5099840;28;20232;-79
2021/03/04 08:46:01;;;;;;;13.23;9.48;;;10.50;35.30;;;;;;5101892;28;20216;-81
2021/03/04 08:48:28;;;;;;;15.38;11.18;;;10.50;35.30;;;;;;5103929;28;20254;-78
2021/03/04 08:51:00;;;;;;;16.17;11.02;;;10.60;35.10;;;;;;5100255;28;20212;-77
2021/03/04 08:53:28;;;;;;;15.35;9.40;;;10.60;34.80;;;;;;5098312;28;20221;-77
2021/03/04 08:55:56;;;;;;;17.50;10.75;;;10.70;34.80;;;;;;5106771;28;20304;-77
2021/03/04 08:58:25;;;;;;;17.52;10.02;;;10.80;34.60;;;;;;5111663;28;20197;-78
2021/03/04 09:00:54;;;;;;;15.93;11.25;;;10.90;34.20;;;;;;5108495;28;20288;-78
2021/03/04 09:03:21;;;;;;;13.85;10.23;;;11.00;34.10;;;;;;5096544;28;20430;-77
2021/03/04 09:05:48;;;;;;;14.82;10.27;;;11.10;33.70;;;;;;5096861;28;20273;-78
2021/03/04 09:08:16;;;;;;;13.57;10.35;;;11.30;33.30;;;;;;5097585;28;20572;-77
2021/03/04 09:10:51;;;;;;;18.50;11.80;;;11.40;32.40;;;;;;5101733;28;20266;-77
2021/03/04 09:13:23;;;;;;;16.63;10.57;;;11.50;31.90;;;;;;5099895;28;20278;-78
2021/03/04 09:15:52;;;;;;;15.25;9.90;;;11.70;31.40;;;;;;5101694;28;20388;-79
2021/03/04 09:18:20;;;;;;;15.38;9.77;;;11.80;31.10;;;;;;5110397;28;20205;-78
2021/03/04 09:20:47;;;;;;;14.38;9.43;;;11.90;31.20;;;;;;5115782;28;20197;-77
2021/03/04 09:23:15;;;;;;;13.90;9.60;;;12.10;30.40;;;;;;5113737;28;20224;-78
2021/03/04 09:25:42;;;;;;;15.65;10.00;;;12.20;30.10;;;;;;5107833;28;20220;-78
2021/03/04 09:28:13;;;;;;;12.20;8.70;;;12.40;29.80;;;;;;5114733;28;20228;-77
2021/03/04 09:30:39;;;;;;;13.90;9.45;;;12.50;29.00;;;;;;5114106;28;20205;-78
2021/03/04 09:33:19;;;;;;;20.92;9.27;;;12.50;28.80;;;;;;5112470;28;20228;-79
2021/03/04 09:35:56;;;;;;;17.17;8.68;;;12.50;28.20;;;;;;5114202;28;20221;-79
2021/03/04 09:38:23;;;;;;;15.98;8.77;;;12.60;28.00;;;;;;5113695;28;20235;-78
2021/03/04 09:40:50;;;;;;;17.88;10.00;;;12.70;27.80;;;;;;5114867;28;20209;-79
2021/03/04 09:43:18;;;;;;;12.77;9.07;;;12.70;27.40;;;;;;5116653;28;20221;-79
2021/03/04 09:45:46;;;;;;;13.93;8.82;;;12.80;27.40;;;;;;5115178;28;20211;-81
2021/03/04 09:48:13;;;;;;;18.40;9.07;;;12.80;27.60;;;;;;5106109;28;20287;-80
2021/03/04 09:50:50;;;;;;;13.88;8.55;;;12.90;27.40;;;;;;5103942;28;20232;-78
2021/03/04 09:53:17;;;;;;;23.75;9.93;;;13.00;27.50;;;;;;5105965;28;20233;-80
2021/03/04 09:55:45;;;;;;;17.17;9.40;;;13.20;27.60;;;;;;5109896;28;20233;-76
2021/03/04 09:58:13;;;;;;;14.82;9.23;;;13.40;27.50;;;;;;5107696;28;20208;-79
2021/03/04 10:00:41;;;;;;;14.60;9.05;;;13.60;26.90;;;;;;5103499;28;20255;-78
2021/03/04 10:03:09;;;;;;;15.20;8.73;;;13.80;26.40;;;;;;5103418;28;20590;-78
2021/03/04 10:05:45;;;;;;;18.40;8.32;;;14.10;26.40;;;;;;5102613;28;20201;-78
2021/03/04 10:08:13;;;;;;;13.48;7.55;;;14.30;25.70;;;;;;5109546;28;20200;-79
2021/03/04 10:10:40;;;;;;;16.30;8.05;;;14.20;24.70;;;;;;5114471;28;20185;-76
2021/03/04 10:13:07;;;;;;;13.10;8.15;;;14.20;24.70;;;;;;5112068;28;20228;-79
2021/03/04 10:15:35;;;;;;;17.60;8.65;;;14.20;25.00;;;;;;5104633;28;20697;-79
2021/03/04 10:18:05;;;;;;;10.75;7.53;;;14.20;25.30;;;;;;5101868;28;20223;-78
2021/03/04 10:20:32;;;;;;;13.48;8.20;;;14.30;24.80;;;;;;5100322;28;20701;-79
2021/03/04 10:22:58;;;;;;;15.07;8.68;;;14.20;24.70;;;;;;5099941;28;20221;-78
2021/03/04 10:25:25;;;;;;;13.05;7.03;;;14.30;24.80;;;;;;5099584;28;20528;-81
2021/03/04 10:27:52;;;;;;;15.95;8.25;;;14.30;24.80;;;;;;5100019;28;20201;-78
2021/03/04 10:30:20;;;;;;;13.00;8.45;;;14.10;24.60;;;;;;5101344;28;20209;-79
2021/03/04 10:32:47;;;;;;;14.38;8.60;;;13.90;25.70;;;;;;5100638;28;20221;-80
2021/03/04 10:35:15;;;;;;;14.77;7.80;;;13.90;25.70;;;;;;5099011;28;20236;-78
2021/03/04 10:37:42;;;;;;;17.13;8.30;;;14.10;25.00;;;;;;5099092;28;20209;-78
2021/03/04 10:40:10;;;;;;;11.52;7.68;;;14.40;24.80;;;;;;5098132;28;20300;-78
2021/03/04 10:42:37;;;;;;;14.35;7.65;;;14.60;25.00;;;;;;5096533;28;20229;-79
2021/03/04 10:45:05;;;;;;;23.30;8.88;;;14.70;25.10;;;;;;5095077;28;20705;-78
2021/03/04 10:47:32;;;;;;;12.15;7.82;;;14.60;25.00;;;;;;5094368;28;20228;-79
2021/03/04 10:49:59;;;;;;;12.10;7.17;;;14.60;25.00;;;;;;5095305;28;20315;-77
2021/03/04 10:52:25;;;;;;;11.82;7.70;;;14.60;25.00;;;;;;5102760;28;20475;-81
2021/03/04 10:54:52;;;;;;;13.67;7.23;;;14.60;25.00;;;;;;5097443;28;20289;-79
2021/03/04 10:57:18;;;;;;;12.00;7.07;;;14.60;25.00;;;;;;5094747;28;20410;-79
2021/03/04 10:59:45;;;;;;;13.77;7.43;;;14.50;24.90;;;;;;5097632;28;20209;-81
2021/03/04 11:02:12;;;;;;;16.02;8.00;;;14.50;24.90;;;;;;5104079;28;20442;-79
2021/03/04 11:04:39;;;;;;;16.08;7.97;;;14.40;25.70;;;;;;5099582;28;20212;-80
2021/03/04 11:07:06;;;;;;;11.38;6.75;;;14.30;26.00;;;;;;5108848;28;20197;-81
2021/03/04 11:09:32;;;;;;;14.57;7.40;;;14.40;25.90;;;;;;5109403;28;20243;-80
2021/03/04 11:11:59;;;;;;;14.45;7.50;;;14.60;25.90;;;;;;5104981;28;20309;-80
2021/03/04 11:14:25;;;;;;;15.65;7.85;;;14.90;25.20;;;;;;5115305;28;20231;-80
2021/03/04 11:16:51;;;;;;;18.37;7.80;;;15.10;25.40;;;;;;5113372;28;20278;-80
2021/03/04 11:19:18;;;;;;;16.17;8.17;;;15.30;25.50;;;;;;5099177;28;20426;-80
2021/03/04 11:21:46;;;;;;;11.67;7.63;;;15.30;25.50;;;;;;5095599;28;20527;-79
2021/03/04 11:24:12;;;;;;;16.58;7.60;;;15.20;25.40;;;;;;5095003;28;20486;-79
2021/03/04 11:26:39;;;;;;;13.77;7.20;;;15.20;25.40;;;;;;5101698;28;20649;-80
2021/03/04 11:29:06;;;;;;;14.68;7.13;;;15.10;25.40;;;;;;5104754;28;20620;-79
2021/03/04 11:31:33;;;;;;;15.18;7.40;;;15.10;25.40;;;;;;5105444;28;20264;-80
2021/03/04 11:34:00;;;;;;;13.80;7.40;;;15.00;25.30;;;;;;5106601;28;20245;-79
2021/03/04 11:36:28;;;;;;;14.07;7.63;;;15.00;25.30;;;;;;5106501;28;20221;-78
2021/03/04 11:38:55;;;;;;;15.73;7.63;;;14.90;25.20;;;;;;5105879;28;20227;-78
2021/03/04 11:41:21;;;;;;;12.52;7.40;;;15.00;25.30;;;;;;5111286;28;20189;-78
2021/03/04 11:43:48;;;;;;;14.30;8.00;;;15.10;25.40;;;;;;5107289;28;20201;-80
2021/03/04 11:46:14;;;;;;;14.65;8.02;;;15.10;25.40;;;;;;5111085;28;20254;-80
2021/03/04 11:48:41;;;;;;;13.33;7.80;;;15.20;25.40;;;;;;5109941;28;20213;-80
2021/03/04 11:51:07;;;;;;;17.33;7.95;;;15.40;25.60;;;;;;5098496;28;20451;-79
2021/03/04 11:53:34;;;;;;;11.73;7.80;;;15.60;25.70;;;;;;5094559;28;20255;-81
2021/03/04 11:56:01;;;;;;;13.20;8.23;;;15.60;25.70;;;;;;5098849;28;20529;-79
2021/03/04 11:58:28;;;;;;;15.57;7.57;;;15.40;25.60;;;;;;5101611;28;20509;-80
2021/03/04 12:00:55;;;;;;;14.52;8.05;;;15.30;25.50;;;;;;5102053;28;20810;-79
2021/03/04 12:03:22;;;;;;;18.20;8.40;;;15.30;25.50;;;;;;5103573;28;20217;-80
2021/03/04 12:05:49;;;;;;;12.50;7.53;;;15.20;25.40;;;;;;5103908;28;20296;-80
2021/03/04 12:08:16;;;;;;;17.98;8.45;;;15.30;25.50;;;;;;5106392;28;20278;-80
2021/03/04 12:10:43;;;;;;;14.73;7.73;;;15.40;25.60;;;;;;5098831;28;20528;-80
2021/03/04 12:13:11;;;;;;;23.00;9.13;;;15.60;25.70;;;;;;5099943;28;20453;-80
2021/03/04 12:15:38;;;;;;;15.37;7.40;;;15.80;25.30;;;;;;5098327;28;20573;-81
2021/03/04 12:18:05;;;;;;;16.90;8.23;;;15.90;24.80;;;;;;5099090;28;20448;-82
2021/03/04 12:20:32;;;;;;;20.97;8.33;;;16.20;23.80;;;;;;5101165;28;20466;-81
2021/03/04 12:22:59;;;;;;;15.53;7.83;;;16.20;24.00;;;;;;5099769;28;20957;-81
2021/03/04 12:25:26;;;;;;;14.93;8.63;;;16.00;23.60;;;;;;5099629;28;20444;-81
2021/03/04 12:27:52;;;;;;;20.37;8.40;;;16.00;23.40;;;;;;5102215;28;20414;-82
2021/03/04 12:30:21;;;;;;;18.00;8.20;;;16.10;23.20;;;;;;5102901;28;20576;-80
2021/03/04 12:32:48;;;;;;;14.03;7.77;;;16.10;23.40;;;;;;5104537;28;20510;-81
2021/03/04 12:35:15;;;;;;;13.57;8.23;;;16.00;23.80;;;;;;5107641;28;20508;-80
2021/03/04 12:37:42;;;;;;;13.33;8.23;;;16.00;23.80;;;;;;5108259;28;20442;-82
2021/03/04 12:40:12;;;;;;;18.60;8.10;;;16.00;23.70;;;;;;5107091;28;20421;-79